sensor_id;sensor_type;location;lat;lon;timestamp;P1;durP1;ratioP1;P2;durP2;ratioP2
17714;SDS011;8977;50.902;4.314;2023-06-04T00:00:51;2.45;;;1.05;;
17714;SDS011;8977;50.902;4.314;2023-06-04T00:03:18;3.28;;;1.20;;
17714;SDS011;8977;50.902;4.314;2023-06-04T00:05:45;1.25;;;1.10;;
17714;SDS011;8977;50.902;4.314;2023-06-04T00:08:13;2.92;;;1.20;;
17714;SDS011;8977;50.902;4.314;2023-06-04T00:10:40;1.95;;;1.23;;
17714;SDS011;8977;50.902;4.314;2023-06-04T00:13:07;2.10;;;1.30;;
17714;SDS011;8977;50.902;4.314;2023-06-04T00:15:34;3.15;;;1.48;;
17714;SDS011;8977;50.902;4.314;2023-06-04T00:18:01;4.90;;;1.65;;
17714;SDS011;8977;50.902;4.314;2023-06-04T00:20:28;2.92;;;1.70;;
17714;SDS011;8977;50.902;4.314;2023-06-04T00:22:55;4.53;;;2.88;;
17714;SDS011;8977;50.902;4.314;2023-06-04T00:25:23;7.63;;;3.85;;
17714;SDS011;8977;50.902;4.314;2023-06-04T00:27:51;9.07;;;4.47;;
17714;SDS011;8977;50.902;4.314;2023-06-04T00:30:18;5.65;;;4.18;;
17714;SDS011;8977;50.902;4.314;2023-06-04T00:32:45;5.25;;;4.43;;
17714;SDS011;8977;50.902;4.314;2023-06-04T00:35:12;5.80;;;4.18;;
17714;SDS011;8977;50.902;4.314;2023-06-04T00:37:39;7.28;;;3.70;;
17714;SDS011;8977;50.902;4.314;2023-06-04T00:40:07;3.88;;;3.40;;
17714;SDS011;8977;50.902;4.314;2023-06-04T00:42:35;3.75;;;3.08;;
17714;SDS011;8977;50.902;4.314;2023-06-04T00:45:03;6.45;;;3.25;;
17714;SDS011;8977;50.902;4.314;2023-06-04T00:47:30;3.78;;;3.20;;
17714;SDS011;8977;50.902;4.314;2023-06-04T00:49:57;6.00;;;3.00;;
17714;SDS011;8977;50.902;4.314;2023-06-04T00:52:25;4.20;;;2.42;;
17714;SDS011;8977;50.902;4.314;2023-06-04T00:54:52;4.35;;;2.15;;
17714;SDS011;8977;50.902;4.314;2023-06-04T00:57:20;2.97;;;2.13;;
17714;SDS011;8977;50.902;4.314;2023-06-04T00:59:48;2.92;;;2.17;;
17714;SDS011;8977;50.902;4.314;2023-06-04T01:02:17;2.63;;;1.80;;
17714;SDS011;8977;50.902;4.314;2023-06-04T01:04:49;2.42;;;1.80;;
17714;SDS011;8977;50.902;4.314;2023-06-04T01:07:20;2.80;;;2.10;;
17714;SDS011;8977;50.902;4.314;2023-06-04T01:09:48;4.15;;;2.22;;
17714;SDS011;8977;50.902;4.314;2023-06-04T01:12:16;3.08;;;1.80;;
17714;SDS011;8977;50.902;4.314;2023-06-04T01:14:43;2.97;;;1.80;;
17714;SDS011;8977;50.902;4.314;2023-06-04T01:17:13;2.92;;;1.83;;
17714;SDS011;8977;50.902;4.314;2023-06-04T01:19:57;3.08;;;1.60;;
17714;SDS011;8977;50.902;4.314;2023-06-04T01:22:43;2.70;;;2.00;;
17714;SDS011;8977;50.902;4.314;2023-06-04T01:25:25;2.70;;;1.90;;
17714;SDS011;8977;50.902;4.314;2023-06-04T01:27:58;4.10;;;1.73;;
17714;SDS011;8977;50.902;4.314;2023-06-04T01:30:29;4.22;;;2.00;;
17714;SDS011;8977;50.902;4.314;2023-06-04T01:32:59;2.13;;;1.90;;
17714;SDS011;8977;50.902;4.314;2023-06-04T01:35:27;3.47;;;1.90;;
17714;SDS011;8977;50.902;4.314;2023-06-04T01:37:56;2.90;;;1.80;;
17714;SDS011;8977;50.902;4.314;2023-06-04T01:40:24;2.95;;;1.90;;
17714;SDS011;8977;50.902;4.314;2023-06-04T01:42:51;3.42;;;1.98;;
17714;SDS011;8977;50.902;4.314;2023-06-04T01:45:18;5.53;;;1.95;;
17714;SDS011;8977;50.902;4.314;2023-06-04T01:47:46;6.00;;;1.95;;
17714;SDS011;8977;50.902;4.314;2023-06-04T01:50:15;4.10;;;2.00;;
17714;SDS011;8977;50.902;4.314;2023-06-04T01:52:42;2.70;;;1.98;;
17714;SDS011;8977;50.902;4.314;2023-06-04T01:55:09;4.43;;;1.95;;
17714;SDS011;8977;50.902;4.314;2023-06-04T01:57:38;2.38;;;1.85;;
17714;SDS011;8977;50.902;4.314;2023-06-04T02:00:06;5.25;;;2.17;;
17714;SDS011;8977;50.902;4.314;2023-06-04T02:02:35;2.92;;;1.50;;
17714;SDS011;8977;50.902;4.314;2023-06-04T02:05:03;2.63;;;1.77;;
17714;SDS011;8977;50.902;4.314;2023-06-04T02:07:34;3.67;;;2.00;;
17714;SDS011;8977;50.902;4.314;2023-06-04T02:10:03;4.78;;;2.05;;
17714;SDS011;8977;50.902;4.314;2023-06-04T02:12:31;6.28;;;2.45;;
17714;SDS011;8977;50.902;4.314;2023-06-04T02:14:57;3.20;;;1.85;;
17714;SDS011;8977;50.902;4.314;2023-06-04T02:17:24;2.63;;;2.10;;
17714;SDS011;8977;50.902;4.314;2023-06-04T02:19:51;2.45;;;2.10;;
17714;SDS011;8977;50.902;4.314;2023-06-04T02:22:19;2.60;;;1.90;;
17714;SDS011;8977;50.902;4.314;2023-06-04T02:24:47;2.67;;;1.98;;
17714;SDS011;8977;50.902;4.314;2023-06-04T02:27:14;3.58;;;2.00;;
17714;SDS011;8977;50.902;4.314;2023-06-04T02:29:41;2.58;;;2.10;;
17714;SDS011;8977;50.902;4.314;2023-06-04T02:32:08;3.20;;;1.80;;
17714;SDS011;8977;50.902;4.314;2023-06-04T02:34:36;3.42;;;2.20;;
17714;SDS011;8977;50.902;4.314;2023-06-04T02:37:03;3.22;;;1.85;;
17714;SDS011;8977;50.902;4.314;2023-06-04T02:39:30;3.15;;;1.80;;
17714;SDS011;8977;50.902;4.314;2023-06-04T02:41:59;2.00;;;1.83;;
17714;SDS011;8977;50.902;4.314;2023-06-04T02:44:25;3.30;;;1.95;;
17714;SDS011;8977;50.902;4.314;2023-06-04T02:46:54;3.70;;;2.00;;
17714;SDS011;8977;50.902;4.314;2023-06-04T02:49:22;4.38;;;2.10;;
17714;SDS011;8977;50.902;4.314;2023-06-04T02:51:48;2.95;;;1.90;;
17714;SDS011;8977;50.902;4.314;2023-06-04T02:54:16;2.75;;;2.13;;
17714;SDS011;8977;50.902;4.314;2023-06-04T02:56:43;2.53;;;2.00;;
17714;SDS011;8977;50.902;4.314;2023-06-04T02:59:11;2.92;;;2.05;;
17714;SDS011;8977;50.902;4.314;2023-06-04T03:01:39;2.13;;;1.80;;
17714;SDS011;8977;50.902;4.314;2023-06-04T03:04:06;3.65;;;2.08;;
17714;SDS011;8977;50.902;4.314;2023-06-04T03:06:35;1.98;;;1.77;;
17714;SDS011;8977;50.902;4.314;2023-06-04T03:09:04;3.45;;;2.00;;
17714;SDS011;8977;50.902;4.314;2023-06-04T03:11:32;2.60;;;2.00;;
17714;SDS011;8977;50.902;4.314;2023-06-04T03:13:59;2.15;;;1.90;;
17714;SDS011;8977;50.902;4.314;2023-06-04T03:16:27;4.15;;;2.05;;
17714;SDS011;8977;50.902;4.314;2023-06-04T03:18:55;3.40;;;2.05;;
17714;SDS011;8977;50.902;4.314;2023-06-04T03:21:22;3.45;;;2.05;;
17714;SDS011;8977;50.902;4.314;2023-06-04T03:23:50;4.07;;;1.83;;
17714;SDS011;8977;50.902;4.314;2023-06-04T03:26:18;3.03;;;2.17;;
17714;SDS011;8977;50.902;4.314;2023-06-04T03:28:45;5.18;;;2.17;;
17714;SDS011;8977;50.902;4.314;2023-06-04T03:31:12;3.58;;;2.40;;
17714;SDS011;8977;50.902;4.314;2023-06-04T03:33:41;3.85;;;2.10;;
17714;SDS011;8977;50.902;4.314;2023-06-04T03:36:08;3.75;;;1.88;;
17714;SDS011;8977;50.902;4.314;2023-06-04T03:38:35;2.45;;;2.00;;
17714;SDS011;8977;50.902;4.314;2023-06-04T03:41:02;4.93;;;2.10;;
17714;SDS011;8977;50.902;4.314;2023-06-04T03:43:29;2.63;;;2.10;;
17714;SDS011;8977;50.902;4.314;2023-06-04T03:45:56;4.72;;;2.30;;
17714;SDS011;8977;50.902;4.314;2023-06-04T03:48:23;3.25;;;1.95;;
17714;SDS011;8977;50.902;4.314;2023-06-04T03:50:51;3.47;;;1.88;;
17714;SDS011;8977;50.902;4.314;2023-06-04T03:53:18;5.05;;;2.22;;
17714;SDS011;8977;50.902;4.314;2023-06-04T03:55:45;2.92;;;2.13;;
17714;SDS011;8977;50.902;4.314;2023-06-04T03:58:12;2.83;;;2.00;;
17714;SDS011;8977;50.902;4.314;2023-06-04T04:00:40;5.18;;;2.55;;
17714;SDS011;8977;50.902;4.314;2023-06-04T04:03:07;3.42;;;2.22;;
17714;SDS011;8977;50.902;4.314;2023-06-04T04:05:35;3.80;;;2.20;;
17714;SDS011;8977;50.902;4.314;2023-06-04T04:08:03;3.35;;;2.20;;
17714;SDS011;8977;50.902;4.314;2023-06-04T04:10:31;3.08;;;2.20;;
17714;SDS011;8977;50.902;4.314;2023-06-04T04:12:58;3.20;;;2.05;;
17714;SDS011;8977;50.902;4.314;2023-06-04T04:15:26;6.25;;;2.35;;
17714;SDS011;8977;50.902;4.314;2023-06-04T04:17:54;4.30;;;2.00;;
17714;SDS011;8977;50.902;4.314;2023-06-04T04:20:21;2.60;;;2.15;;
17714;SDS011;8977;50.902;4.314;2023-06-04T04:22:48;4.90;;;2.22;;
17714;SDS011;8977;50.902;4.314;2023-06-04T04:25:19;2.65;;;2.10;;
17714;SDS011;8977;50.902;4.314;2023-06-04T04:27:46;3.65;;;2.28;;
17714;SDS011;8977;50.902;4.314;2023-06-04T04:30:13;2.55;;;2.05;;
17714;SDS011;8977;50.902;4.314;2023-06-04T04:32:42;3.42;;;2.30;;
17714;SDS011;8977;50.902;4.314;2023-06-04T04:35:13;2.95;;;2.00;;
17714;SDS011;8977;50.902;4.314;2023-06-04T04:37:43;3.70;;;2.13;;
17714;SDS011;8977;50.902;4.314;2023-06-04T04:40:10;4.15;;;2.22;;
17714;SDS011;8977;50.902;4.314;2023-06-04T04:42:40;7.00;;;2.30;;
17714;SDS011;8977;50.902;4.314;2023-06-04T04:45:08;2.63;;;2.10;;
17714;SDS011;8977;50.902;4.314;2023-06-04T04:47:36;3.90;;;2.40;;
17714;SDS011;8977;50.902;4.314;2023-06-04T04:50:03;3.22;;;2.30;;
17714;SDS011;8977;50.902;4.314;2023-06-04T04:52:31;3.83;;;2.30;;
17714;SDS011;8977;50.902;4.314;2023-06-04T04:54:58;3.08;;;2.45;;
17714;SDS011;8977;50.902;4.314;2023-06-04T04:57:24;4.13;;;2.30;;
17714;SDS011;8977;50.902;4.314;2023-06-04T04:59:53;4.07;;;2.22;;
17714;SDS011;8977;50.902;4.314;2023-06-04T05:02:20;2.50;;;1.95;;
17714;SDS011;8977;50.902;4.314;2023-06-04T05:04:46;3.15;;;2.20;;
17714;SDS011;8977;50.902;4.314;2023-06-04T05:07:14;3.55;;;2.38;;
17714;SDS011;8977;50.902;4.314;2023-06-04T05:09:41;2.47;;;2.00;;
17714;SDS011;8977;50.902;4.314;2023-06-04T05:12:10;3.08;;;1.95;;
17714;SDS011;8977;50.902;4.314;2023-06-04T05:14:37;2.63;;;2.17;;
17714;SDS011;8977;50.902;4.314;2023-06-04T05:17:05;3.05;;;2.05;;
17714;SDS011;8977;50.902;4.314;2023-06-04T05:19:35;4.97;;;2.20;;
17714;SDS011;8977;50.902;4.314;2023-06-04T05:22:03;4.22;;;2.17;;
17714;SDS011;8977;50.902;4.314;2023-06-04T05:24:31;2.92;;;2.28;;
17714;SDS011;8977;50.902;4.314;2023-06-04T05:26:59;4.80;;;2.45;;
17714;SDS011;8977;50.902;4.314;2023-06-04T05:29:25;2.83;;;2.38;;
17714;SDS011;8977;50.902;4.314;2023-06-04T05:31:52;3.92;;;2.40;;
17714;SDS011;8977;50.902;4.314;2023-06-04T05:34:21;5.18;;;2.70;;
17714;SDS011;8977;50.902;4.314;2023-06-04T05:36:48;4.97;;;2.40;;
17714;SDS011;8977;50.902;4.314;2023-06-04T05:39:14;4.45;;;2.33;;
17714;SDS011;8977;50.902;4.314;2023-06-04T05:41:43;5.05;;;2.63;;
17714;SDS011;8977;50.902;4.314;2023-06-04T05:44:10;3.85;;;2.42;;
17714;SDS011;8977;50.902;4.314;2023-06-04T05:46:38;4.63;;;2.40;;
17714;SDS011;8977;50.902;4.314;2023-06-04T05:49:05;4.63;;;2.60;;
17714;SDS011;8977;50.902;4.314;2023-06-04T05:51:33;4.63;;;2.40;;
17714;SDS011;8977;50.902;4.314;2023-06-04T05:54:01;3.78;;;2.67;;
17714;SDS011;8977;50.902;4.314;2023-06-04T05:56:29;2.63;;;2.20;;
17714;SDS011;8977;50.902;4.314;2023-06-04T05:58:56;6.35;;;2.88;;
17714;SDS011;8977;50.902;4.314;2023-06-04T06:01:22;4.32;;;2.60;;
17714;SDS011;8977;50.902;4.314;2023-06-04T06:03:49;2.45;;;2.13;;
17714;SDS011;8977;50.902;4.314;2023-06-04T06:06:16;4.50;;;2.33;;
17714;SDS011;8977;50.902;4.314;2023-06-04T06:08:46;3.15;;;2.40;;
17714;SDS011;8977;50.902;4.314;2023-06-04T06:11:13;3.17;;;2.72;;
17714;SDS011;8977;50.902;4.314;2023-06-04T06:13:41;4.07;;;2.63;;
17714;SDS011;8977;50.902;4.314;2023-06-04T06:16:08;3.22;;;2.30;;
17714;SDS011;8977;50.902;4.314;2023-06-04T06:18:35;3.75;;;2.20;;
17714;SDS011;8977;50.902;4.314;2023-06-04T06:21:02;2.70;;;2.40;;
17714;SDS011;8977;50.902;4.314;2023-06-04T06:23:28;2.55;;;2.08;;
17714;SDS011;8977;50.902;4.314;2023-06-04T06:25:57;3.90;;;2.50;;
17714;SDS011;8977;50.902;4.314;2023-06-04T06:28:26;3.53;;;2.80;;
17714;SDS011;8977;50.902;4.314;2023-06-04T06:30:53;3.95;;;2.45;;
17714;SDS011;8977;50.902;4.314;2023-06-04T06:33:20;4.18;;;2.58;;
17714;SDS011;8977;50.902;4.314;2023-06-04T06:35:48;4.80;;;2.00;;
17714;SDS011;8977;50.902;4.314;2023-06-04T06:38:15;2.88;;;2.28;;
17714;SDS011;8977;50.902;4.314;2023-06-04T06:40:42;5.63;;;2.90;;
17714;SDS011;8977;50.902;4.314;2023-06-04T06:43:10;5.38;;;2.25;;
17714;SDS011;8977;50.902;4.314;2023-06-04T06:45:37;2.97;;;2.30;;
17714;SDS011;8977;50.902;4.314;2023-06-04T06:48:04;3.17;;;2.28;;
17714;SDS011;8977;50.902;4.314;2023-06-04T06:50:31;3.22;;;2.45;;
17714;SDS011;8977;50.902;4.314;2023-06-04T06:53:00;3.15;;;2.40;;
17714;SDS011;8977;50.902;4.314;2023-06-04T06:55:27;4.07;;;2.40;;
17714;SDS011;8977;50.902;4.314;2023-06-04T06:57:54;4.03;;;2.20;;
17714;SDS011;8977;50.902;4.314;2023-06-04T07:00:22;3.20;;;2.08;;
17714;SDS011;8977;50.902;4.314;2023-06-04T07:02:50;3.50;;;2.20;;
17714;SDS011;8977;50.902;4.314;2023-06-04T07:05:18;3.78;;;2.60;;
17714;SDS011;8977;50.902;4.314;2023-06-04T07:07:46;3.38;;;2.50;;
17714;SDS011;8977;50.902;4.314;2023-06-04T07:10:13;4.45;;;2.08;;
17714;SDS011;8977;50.902;4.314;2023-06-04T07:12:40;3.67;;;2.50;;
17714;SDS011;8977;50.902;4.314;2023-06-04T07:15:07;2.88;;;2.17;;
17714;SDS011;8977;50.902;4.314;2023-06-04T07:17:36;3.42;;;2.10;;
17714;SDS011;8977;50.902;4.314;2023-06-04T07:20:03;3.92;;;2.10;;
17714;SDS011;8977;50.902;4.314;2023-06-04T07:22:32;3.72;;;2.00;;
17714;SDS011;8977;50.902;4.314;2023-06-04T07:24:58;4.32;;;2.30;;
17714;SDS011;8977;50.902;4.314;2023-06-04T07:27:25;2.35;;;1.88;;
17714;SDS011;8977;50.902;4.314;2023-06-04T07:29:53;3.03;;;1.60;;
17714;SDS011;8977;50.902;4.314;2023-06-04T07:32:20;2.30;;;1.90;;
17714;SDS011;8977;50.902;4.314;2023-06-04T07:34:48;3.70;;;1.98;;
17714;SDS011;8977;50.902;4.314;2023-06-04T07:37:15;3.60;;;2.00;;
17714;SDS011;8977;50.902;4.314;2023-06-04T07:39:42;3.63;;;1.85;;
17714;SDS011;8977;50.902;4.314;2023-06-04T07:42:09;1.95;;;1.73;;
17714;SDS011;8977;50.902;4.314;2023-06-04T07:44:36;2.45;;;1.60;;
17714;SDS011;8977;50.902;4.314;2023-06-04T07:47:03;4.25;;;2.10;;
17714;SDS011;8977;50.902;4.314;2023-06-04T07:49:31;2.35;;;1.55;;
17714;SDS011;8977;50.902;4.314;2023-06-04T07:51:59;2.30;;;1.70;;
17714;SDS011;8977;50.902;4.314;2023-06-04T07:54:26;2.78;;;1.60;;
17714;SDS011;8977;50.902;4.314;2023-06-04T07:56:53;1.63;;;1.40;;
17714;SDS011;8977;50.902;4.314;2023-06-04T07:59:21;2.63;;;1.63;;
17714;SDS011;8977;50.902;4.314;2023-06-04T08:01:49;2.80;;;1.60;;
17714;SDS011;8977;50.902;4.314;2023-06-04T08:04:17;2.20;;;1.70;;
17714;SDS011;8977;50.902;4.314;2023-06-04T08:06:44;2.30;;;1.63;;
17714;SDS011;8977;50.902;4.314;2023-06-04T08:09:13;2.10;;;1.30;;
17714;SDS011;8977;50.902;4.314;2023-06-04T08:11:41;4.03;;;1.70;;
17714;SDS011;8977;50.902;4.314;2023-06-04T08:14:09;3.42;;;1.75;;
17714;SDS011;8977;50.902;4.314;2023-06-04T08:16:37;3.63;;;1.50;;
17714;SDS011;8977;50.902;4.314;2023-06-04T08:19:05;2.20;;;1.42;;
17714;SDS011;8977;50.902;4.314;2023-06-04T08:21:33;1.50;;;1.40;;
17714;SDS011;8977;50.902;4.314;2023-06-04T08:24:00;2.15;;;1.30;;
17714;SDS011;8977;50.902;4.314;2023-06-04T08:26:29;1.52;;;1.38;;
17714;SDS011;8977;50.902;4.314;2023-06-04T08:28:56;1.88;;;1.42;;
17714;SDS011;8977;50.902;4.314;2023-06-04T08:31:23;1.45;;;1.27;;
17714;SDS011;8977;50.902;4.314;2023-06-04T08:33:50;3.88;;;1.60;;
17714;SDS011;8977;50.902;4.314;2023-06-04T08:36:17;1.77;;;1.45;;
17714;SDS011;8977;50.902;4.314;2023-06-04T08:38:45;2.70;;;1.20;;
17714;SDS011;8977;50.902;4.314;2023-06-04T08:41:17;2.55;;;1.30;;
17714;SDS011;8977;50.902;4.314;2023-06-04T08:43:52;1.58;;;1.05;;
17714;SDS011;8977;50.902;4.314;2023-06-04T08:46:22;3.17;;;1.15;;
17714;SDS011;8977;50.902;4.314;2023-06-04T08:48:50;2.88;;;1.40;;
17714;SDS011;8977;50.902;4.314;2023-06-04T08:51:17;2.70;;;1.25;;
17714;SDS011;8977;50.902;4.314;2023-06-04T08:53:45;1.88;;;1.30;;
17714;SDS011;8977;50.902;4.314;2023-06-04T08:56:15;3.10;;;1.20;;
17714;SDS011;8977;50.902;4.314;2023-06-04T08:58:43;2.20;;;1.27;;
17714;SDS011;8977;50.902;4.314;2023-06-04T09:01:11;2.63;;;1.48;;
17714;SDS011;8977;50.902;4.314;2023-06-04T09:03:40;2.58;;;1.10;;
17714;SDS011;8977;50.902;4.314;2023-06-04T09:06:07;2.33;;;1.20;;
17714;SDS011;8977;50.902;4.314;2023-06-04T09:08:35;1.52;;;1.23;;
17714;SDS011;8977;50.902;4.314;2023-06-04T09:11:05;3.30;;;1.17;;
17714;SDS011;8977;50.902;4.314;2023-06-04T09:13:36;3.85;;;1.13;;
17714;SDS011;8977;50.902;4.314;2023-06-04T09:16:05;2.15;;;0.90;;
17714;SDS011;8977;50.902;4.314;2023-06-04T09:18:33;2.35;;;1.20;;
17714;SDS011;8977;50.902;4.314;2023-06-04T09:21:01;5.07;;;1.40;;
17714;SDS011;8977;50.902;4.314;2023-06-04T09:23:28;2.25;;;1.20;;
17714;SDS011;8977;50.902;4.314;2023-06-04T09:25:57;2.08;;;1.30;;
17714;SDS011;8977;50.902;4.314;2023-06-04T09:28:32;3.88;;;1.10;;
17714;SDS011;8977;50.902;4.314;2023-06-04T09:30:59;2.55;;;1.17;;
17714;SDS011;8977;50.902;4.314;2023-06-04T09:33:27;3.58;;;1.35;;
17714;SDS011;8977;50.902;4.314;2023-06-04T09:35:56;2.25;;;1.33;;
17714;SDS011;8977;50.902;4.314;2023-06-04T09:38:23;3.08;;;1.30;;
17714;SDS011;8977;50.902;4.314;2023-06-04T09:41:00;2.90;;;1.40;;
17714;SDS011;8977;50.902;4.314;2023-06-04T09:43:29;1.73;;;1.15;;
17714;SDS011;8977;50.902;4.314;2023-06-04T09:46:07;2.33;;;1.25;;
17714;SDS011;8977;50.902;4.314;2023-06-04T09:48:34;2.20;;;1.23;;
17714;SDS011;8977;50.902;4.314;2023-06-04T09:51:07;5.25;;;1.70;;
17714;SDS011;8977;50.902;4.314;2023-06-04T09:53:35;2.35;;;1.50;;
17714;SDS011;8977;50.902;4.314;2023-06-04T09:56:03;2.72;;;1.27;;
17714;SDS011;8977;50.902;4.314;2023-06-04T09:58:32;3.80;;;1.13;;
17714;SDS011;8977;50.902;4.314;2023-06-04T10:00:59;3.13;;;1.00;;
17714;SDS011;8977;50.902;4.314;2023-06-04T10:03:30;4.78;;;1.52;;
17714;SDS011;8977;50.902;4.314;2023-06-04T10:05:59;3.17;;;1.25;;
17714;SDS011;8977;50.902;4.314;2023-06-04T10:08:29;1.30;;;1.20;;
17714;SDS011;8977;50.902;4.314;2023-06-04T10:10:58;1.70;;;1.20;;
17714;SDS011;8977;50.902;4.314;2023-06-04T10:13:27;2.05;;;1.23;;
17714;SDS011;8977;50.902;4.314;2023-06-04T10:15:56;2.25;;;1.20;;
17714;SDS011;8977;50.902;4.314;2023-06-04T10:18:26;2.10;;;1.30;;
17714;SDS011;8977;50.902;4.314;2023-06-04T10:20:54;3.58;;;1.23;;
17714;SDS011;8977;50.902;4.314;2023-06-04T10:23:22;1.10;;;1.00;;
17714;SDS011;8977;50.902;4.314;2023-06-04T10:25:51;1.10;;;1.00;;
17714;SDS011;8977;50.902;4.314;2023-06-04T10:28:19;2.25;;;1.17;;
17714;SDS011;8977;50.902;4.314;2023-06-04T10:30:47;4.50;;;1.40;;
17714;SDS011;8977;50.902;4.314;2023-06-04T10:33:16;3.30;;;1.40;;
17714;SDS011;8977;50.902;4.314;2023-06-04T10:35:45;2.65;;;1.23;;
17714;SDS011;8977;50.902;4.314;2023-06-04T10:38:12;2.20;;;1.20;;
17714;SDS011;8977;50.902;4.314;2023-06-04T10:40:41;2.17;;;1.25;;
17714;SDS011;8977;50.902;4.314;2023-06-04T10:43:10;1.88;;;1.30;;
17714;SDS011;8977;50.902;4.314;2023-06-04T10:45:38;1.42;;;1.20;;
17714;SDS011;8977;50.902;4.314;2023-06-04T10:48:05;2.53;;;1.23;;
17714;SDS011;8977;50.902;4.314;2023-06-04T10:50:34;1.88;;;1.13;;
17714;SDS011;8977;50.902;4.314;2023-06-04T10:53:03;1.73;;;1.20;;
17714;SDS011;8977;50.902;4.314;2023-06-04T10:55:30;3.67;;;1.30;;
17714;SDS011;8977;50.902;4.314;2023-06-04T10:58:00;3.15;;;1.23;;
17714;SDS011;8977;50.902;4.314;2023-06-04T11:00:38;2.22;;;1.15;;
17714;SDS011;8977;50.902;4.314;2023-06-04T11:03:05;9.75;;;1.88;;
17714;SDS011;8977;50.902;4.314;2023-06-04T11:05:33;2.00;;;1.27;;
17714;SDS011;8977;50.902;4.314;2023-06-04T11:08:01;2.42;;;1.20;;
17714;SDS011;8977;50.902;4.314;2023-06-04T11:10:33;3.05;;;1.20;;
17714;SDS011;8977;50.902;4.314;2023-06-04T11:13:01;3.15;;;1.38;;
17714;SDS011;8977;50.902;4.314;2023-06-04T11:15:41;2.22;;;1.20;;
17714;SDS011;8977;50.902;4.314;2023-06-04T11:18:13;4.70;;;1.40;;
17714;SDS011;8977;50.902;4.314;2023-06-04T11:20:41;2.15;;;1.35;;
17714;SDS011;8977;50.902;4.314;2023-06-04T11:23:11;1.30;;;1.15;;
17714;SDS011;8977;50.902;4.314;2023-06-04T11:25:38;3.33;;;1.40;;
17714;SDS011;8977;50.902;4.314;2023-06-04T11:28:05;4.13;;;1.10;;
17714;SDS011;8977;50.902;4.314;2023-06-04T11:30:32;4.05;;;1.10;;
17714;SDS011;8977;50.902;4.314;2023-06-04T11:33:01;1.30;;;1.00;;
17714;SDS011;8977;50.902;4.314;2023-06-04T11:35:30;4.63;;;1.30;;
17714;SDS011;8977;50.902;4.314;2023-06-04T11:37:58;2.17;;;1.35;;
17714;SDS011;8977;50.902;4.314;2023-06-04T11:40:25;1.75;;;1.23;;
17714;SDS011;8977;50.902;4.314;2023-06-04T11:42:52;1.45;;;1.20;;
17714;SDS011;8977;50.902;4.314;2023-06-04T11:45:20;1.50;;;1.40;;
17714;SDS011;8977;50.902;4.314;2023-06-04T11:47:48;3.13;;;1.73;;
17714;SDS011;8977;50.902;4.314;2023-06-04T11:50:17;3.63;;;1.17;;
17714;SDS011;8977;50.902;4.314;2023-06-04T11:52:44;3.95;;;1.35;;
17714;SDS011;8977;50.902;4.314;2023-06-04T11:55:14;1.20;;;1.10;;
17714;SDS011;8977;50.902;4.314;2023-06-04T11:57:45;2.67;;;1.30;;
17714;SDS011;8977;50.902;4.314;2023-06-04T12:00:13;2.05;;;1.15;;
17714;SDS011;8977;50.902;4.314;2023-06-04T12:02:48;2.97;;;1.50;;
17714;SDS011;8977;50.902;4.314;2023-06-04T12:05:18;3.63;;;1.60;;
17714;SDS011;8977;50.902;4.314;2023-06-04T12:07:47;4.40;;;1.40;;
17714;SDS011;8977;50.902;4.314;2023-06-04T12:10:16;2.30;;;1.20;;
17714;SDS011;8977;50.902;4.314;2023-06-04T12:12:43;2.78;;;1.30;;
17714;SDS011;8977;50.902;4.314;2023-06-04T12:15:10;1.77;;;1.20;;
17714;SDS011;8977;50.902;4.314;2023-06-04T12:17:48;1.58;;;1.35;;
17714;SDS011;8977;50.902;4.314;2023-06-04T12:20:17;2.83;;;1.35;;
17714;SDS011;8977;50.902;4.314;2023-06-04T12:22:45;1.98;;;1.40;;
17714;SDS011;8977;50.902;4.314;2023-06-04T12:25:23;2.60;;;1.33;;
17714;SDS011;8977;50.902;4.314;2023-06-04T12:27:51;1.90;;;1.30;;
17714;SDS011;8977;50.902;4.314;2023-06-04T12:30:17;4.15;;;1.40;;
17714;SDS011;8977;50.902;4.314;2023-06-04T12:32:44;3.15;;;1.30;;
17714;SDS011;8977;50.902;4.314;2023-06-04T12:35:11;2.65;;;1.27;;
17714;SDS011;8977;50.902;4.314;2023-06-04T12:37:40;3.10;;;1.73;;
17714;SDS011;8977;50.902;4.314;2023-06-04T12:40:08;1.52;;;1.23;;
17714;SDS011;8977;50.902;4.314;2023-06-04T12:42:35;2.28;;;1.27;;
17714;SDS011;8977;50.902;4.314;2023-06-04T12:45:03;3.78;;;1.50;;
17714;SDS011;8977;50.902;4.314;2023-06-04T12:47:30;4.20;;;1.30;;
17714;SDS011;8977;50.902;4.314;2023-06-04T12:49:57;4.72;;;1.60;;
17714;SDS011;8977;50.902;4.314;2023-06-04T12:52:25;2.70;;;1.40;;
17714;SDS011;8977;50.902;4.314;2023-06-04T12:54:54;2.65;;;1.40;;
17714;SDS011;8977;50.902;4.314;2023-06-04T12:57:20;1.45;;;1.25;;
17714;SDS011;8977;50.902;4.314;2023-06-04T12:59:47;1.58;;;1.33;;
17714;SDS011;8977;50.902;4.314;2023-06-04T13:02:14;1.50;;;1.23;;
17714;SDS011;8977;50.902;4.314;2023-06-04T13:04:41;2.70;;;1.50;;
17714;SDS011;8977;50.902;4.314;2023-06-04T13:07:09;2.53;;;1.42;;
17714;SDS011;8977;50.902;4.314;2023-06-04T13:09:36;2.05;;;1.40;;
17714;SDS011;8977;50.902;4.314;2023-06-04T13:12:05;1.33;;;1.23;;
17714;SDS011;8977;50.902;4.314;2023-06-04T13:14:34;2.47;;;1.63;;
17714;SDS011;8977;50.902;4.314;2023-06-04T13:17:01;1.30;;;1.17;;
17714;SDS011;8977;50.902;4.314;2023-06-04T13:19:28;3.50;;;1.42;;
17714;SDS011;8977;50.902;4.314;2023-06-04T13:21:55;4.70;;;1.58;;
17714;SDS011;8977;50.902;4.314;2023-06-04T13:24:22;3.60;;;1.70;;
17714;SDS011;8977;50.902;4.314;2023-06-04T13:26:49;2.85;;;1.65;;
17714;SDS011;8977;50.902;4.314;2023-06-04T13:29:17;2.63;;;2.10;;
17714;SDS011;8977;50.902;4.314;2023-06-04T13:31:47;3.67;;;1.98;;
17714;SDS011;8977;50.902;4.314;2023-06-04T13:34:17;2.95;;;1.73;;
17714;SDS011;8977;50.902;4.314;2023-06-04T13:36:44;2.13;;;1.40;;
17714;SDS011;8977;50.902;4.314;2023-06-04T13:39:11;3.47;;;1.60;;
17714;SDS011;8977;50.902;4.314;2023-06-04T13:41:38;1.35;;;1.23;;
17714;SDS011;8977;50.902;4.314;2023-06-04T13:44:05;2.92;;;1.40;;
17714;SDS011;8977;50.902;4.314;2023-06-04T13:46:33;2.15;;;1.40;;
17714;SDS011;8977;50.902;4.314;2023-06-04T13:49:00;2.65;;;1.70;;
17714;SDS011;8977;50.902;4.314;2023-06-04T13:51:28;2.78;;;1.23;;
17714;SDS011;8977;50.902;4.314;2023-06-04T13:53:56;1.63;;;1.50;;
17714;SDS011;8977;50.902;4.314;2023-06-04T13:56:24;2.67;;;1.40;;
17714;SDS011;8977;50.902;4.314;2023-06-04T13:58:51;1.95;;;1.30;;
17714;SDS011;8977;50.902;4.314;2023-06-04T14:01:18;1.73;;;1.20;;
17714;SDS011;8977;50.902;4.314;2023-06-04T14:03:46;3.30;;;1.40;;
17714;SDS011;8977;50.902;4.314;2023-06-04T14:06:13;3.80;;;1.60;;
17714;SDS011;8977;50.902;4.314;2023-06-04T14:08:40;2.13;;;1.20;;
17714;SDS011;8977;50.902;4.314;2023-06-04T14:11:07;1.95;;;1.40;;
17714;SDS011;8977;50.902;4.314;2023-06-04T14:13:34;2.03;;;1.48;;
17714;SDS011;8977;50.902;4.314;2023-06-04T14:16:00;5.22;;;1.95;;
17714;SDS011;8977;50.902;4.314;2023-06-04T14:18:27;1.70;;;1.60;;
17714;SDS011;8977;50.902;4.314;2023-06-04T14:20:56;3.25;;;1.73;;
17714;SDS011;8977;50.902;4.314;2023-06-04T14:23:23;3.90;;;1.50;;
17714;SDS011;8977;50.902;4.314;2023-06-04T14:25:49;1.95;;;1.50;;
17714;SDS011;8977;50.902;4.314;2023-06-04T14:28:16;3.47;;;1.67;;
17714;SDS011;8977;50.902;4.314;2023-06-04T14:30:45;2.60;;;1.52;;
17714;SDS011;8977;50.902;4.314;2023-06-04T14:33:12;2.53;;;1.52;;
17714;SDS011;8977;50.902;4.314;2023-06-04T14:35:39;3.20;;;1.30;;
17714;SDS011;8977;50.902;4.314;2023-06-04T14:38:12;3.30;;;1.27;;
17714;SDS011;8977;50.902;4.314;2023-06-04T14:40:40;2.85;;;1.40;;
17714;SDS011;8977;50.902;4.314;2023-06-04T14:43:08;2.45;;;1.30;;
17714;SDS011;8977;50.902;4.314;2023-06-04T14:45:36;3.72;;;1.42;;
17714;SDS011;8977;50.902;4.314;2023-06-04T14:48:04;2.58;;;1.45;;
17714;SDS011;8977;50.902;4.314;2023-06-04T14:50:32;4.78;;;1.67;;
17714;SDS011;8977;50.902;4.314;2023-06-04T14:52:59;1.90;;;1.73;;
17714;SDS011;8977;50.902;4.314;2023-06-04T14:55:27;4.18;;;1.40;;
17714;SDS011;8977;50.902;4.314;2023-06-04T14:57:54;1.30;;;1.17;;
17714;SDS011;8977;50.902;4.314;2023-06-04T15:00:21;1.40;;;1.30;;
17714;SDS011;8977;50.902;4.314;2023-06-04T15:02:48;1.70;;;1.33;;
17714;SDS011;8977;50.902;4.314;2023-06-04T15:05:15;2.25;;;1.45;;